Time;durP1;ratioP1;P1;durP2;ratioP2;P2;SDS_P1;SDS_P2;PMS_P1;PMS_P2;Temp;Humidity;BMP_temperature;BMP_pressure;BME280_temperature;BME280_humidity;BME280_pressure;Samples;Min_cycle;Max_cycle;Signal;HPM_P1;HPM_P2
2022/07/26 00:01:54;;;;;;;14.35;2.65;;;20.20;99.90;;;;;;5106255;28;20159;-66
2022/07/26 00:04:19;;;;;;;15.32;2.90;;;20.20;99.90;;;;;;5106823;28;20032;-66
2022/07/26 00:06:45;;;;;;;12.38;3.13;;;20.20;99.90;;;;;;5103623;28;20048;-66
2022/07/26 00:09:11;;;;;;;13.35;3.03;;;20.20;99.90;;;;;;5104485;28;20035;-66
2022/07/26 00:11:36;;;;;;;13.57;2.95;;;20.10;99.90;;;;;;5103350;28;20033;-66
2022/07/26 00:14:04;;;;;;;13.07;2.92;;;20.20;99.90;;;;;;5101728;28;20127;-66
2022/07/26 00:16:30;;;;;;;14.10;3.47;;;20.10;99.90;;;;;;5107870;28;20058;-66
2022/07/26 00:18:56;;;;;;;15.00;3.35;;;20.10;99.90;;;;;;5109232;28;20051;-66
2022/07/26 00:21:22;;;;;;;8.25;2.67;;;20.10;99.90;;;;;;5110277;28;20042;-66
2022/07/26 00:23:47;;;;;;;12.13;3.10;;;20.00;99.90;;;;;;5108053;28;20051;-66
2022/07/26 00:26:13;;;;;;;13.95;2.92;;;20.00;99.90;;;;;;5105135;28;20041;-66
2022/07/26 00:28:40;;;;;;;13.80;2.83;;;20.10;99.90;;;;;;5108105;28;20040;-66
2022/07/26 00:31:05;;;;;;;15.75;3.47;;;19.90;99.90;;;;;;5107187;28;20044;-66
2022/07/26 00:33:32;;;;;;;14.48;3.28;;;19.90;99.90;;;;;;5109434;28;20061;-66
2022/07/26 00:35:57;;;;;;;19.98;4.18;;;19.90;99.90;;;;;;5107148;28;20040;-66
2022/07/26 00:38:23;;;;;;;14.60;3.13;;;19.80;99.90;;;;;;5108374;28;20040;-66
2022/07/26 00:40:48;;;;;;;14.07;3.33;;;19.80;99.90;;;;;;5106131;28;20160;-65
2022/07/26 00:43:14;;;;;;;13.80;3.05;;;19.80;99.90;;;;;;5106288;28;20040;-66
2022/07/26 00:45:40;;;;;;;15.68;3.78;;;19.80;99.90;;;;;;5110001;28;20047;-66
2022/07/26 00:48:06;;;;;;;13.52;3.40;;;19.80;99.90;;;;;;5106249;28;20053;-66
2022/07/26 00:50:32;;;;;;;13.02;3.10;;;19.70;99.90;;;;;;5108595;28;20035;-66
2022/07/26 00:52:57;;;;;;;12.18;3.00;;;19.70;99.90;;;;;;5107182;28;20038;-66
2022/07/26 00:55:23;;;;;;;16.15;3.42;;;19.70;99.90;;;;;;5107621;28;20088;-66
2022/07/26 00:57:49;;;;;;;14.27;3.30;;;19.70;99.90;;;;;;5106585;28;20036;-66
2022/07/26 01:00:18;;;;;;;12.55;3.50;;;19.70;99.90;;;;;;5107571;28;20047;-66
2022/07/26 01:02:43;;;;;;;14.70;3.33;;;19.70;99.90;;;;;;5104779;28;20071;-66
2022/07/26 01:05:09;;;;;;;14.98;3.75;;;19.70;99.90;;;;;;5097969;28;20077;-65
2022/07/26 01:07:38;;;;;;;13.88;3.20;;;19.60;99.90;;;;;;5105933;28;20164;-68
2022/07/26 01:10:07;;;;;;;13.38;3.25;;;19.60;99.90;;;;;;5099417;28;20040;-66
2022/07/26 01:12:33;;;;;;;13.80;3.15;;;19.60;99.90;;;;;;5106981;28;20043;-65
2022/07/26 01:14:58;;;;;;;13.23;3.15;;;19.60;99.90;;;;;;5106481;28;20427;-65
2022/07/26 01:17:24;;;;;;;14.15;3.13;;;19.50;99.90;;;;;;5107755;28;20055;-66
2022/07/26 01:19:50;;;;;;;12.80;3.47;;;19.50;99.90;;;;;;5108478;28;20059;-66
2022/07/26 01:22:15;;;;;;;12.80;3.78;;;19.50;99.90;;;;;;5107604;28;20035;-65
2022/07/26 01:24:41;;;;;;;14.73;3.15;;;19.50;99.90;;;;;;5108549;28;20051;-65
2022/07/26 01:27:06;;;;;;;16.45;3.70;;;19.50;99.90;;;;;;5107770;28;20079;-67
2022/07/26 01:29:32;;;;;;;15.93;3.83;;;19.50;99.90;;;;;;5106095;28;21221;-65
2022/07/26 01:31:58;;;;;;;11.13;3.47;;;19.40;99.90;;;;;;5106220;28;20461;-66
2022/07/26 01:34:23;;;;;;;19.83;3.70;;;19.40;99.90;;;;;;5107605;28;20116;-65
2022/07/26 01:36:49;;;;;;;14.32;3.60;;;19.40;99.90;;;;;;5094558;28;20119;-65
2022/07/26 01:39:15;;;;;;;16.52;3.40;;;19.30;99.90;;;;;;5107863;28;20455;-65
2022/07/26 01:41:41;;;;;;;14.07;3.50;;;19.30;99.90;;;;;;5108717;28;20035;-65
2022/07/26 01:44:06;;;;;;;13.93;3.75;;;19.30;99.90;;;;;;5107799;28;20101;-65
2022/07/26 01:46:33;;;;;;;16.20;3.58;;;19.30;99.90;;;;;;5106973;28;20171;-65
2022/07/26 01:49:00;;;;;;;13.90;3.65;;;19.30;99.90;;;;;;5106744;28;20071;-65
2022/07/26 01:51:26;;;;;;;14.48;3.47;;;19.30;99.90;;;;;;5108169;28;20290;-65
2022/07/26 01:53:52;;;;;;;13.82;3.47;;;19.30;99.90;;;;;;5106112;28;20504;-65
2022/07/26 01:56:17;;;;;;;14.35;3.38;;;19.30;99.90;;;;;;5099280;28;20181;-65
2022/07/26 01:58:43;;;;;;;14.43;3.40;;;19.20;99.90;;;;;;5101873;28;20053;-65
2022/07/26 02:01:08;;;;;;;12.68;3.28;;;19.20;99.90;;;;;;5107553;27;20079;-65
2022/07/26 02:03:34;;;;;;;13.57;3.90;;;19.20;99.90;;;;;;5104849;28;20061;-65
2022/07/26 02:06:01;;;;;;;15.43;3.40;;;19.20;99.90;;;;;;5103127;28;20408;-65
2022/07/26 02:08:27;;;;;;;12.07;3.22;;;19.20;99.90;;;;;;5100203;28;20109;-65
2022/07/26 02:10:59;;;;;;;15.45;3.58;;;19.10;99.90;;;;;;5104707;28;20421;-65
2022/07/26 02:13:28;;;;;;;11.85;3.17;;;19.10;99.90;;;;;;5107621;28;20049;-65
2022/07/26 02:15:54;;;;;;;10.70;3.05;;;19.10;99.90;;;;;;5107171;28;20404;-66
2022/07/26 02:18:20;;;;;;;13.27;2.80;;;19.20;99.90;;;;;;5096067;28;20028;-65
2022/07/26 02:20:45;;;;;;;13.35;3.33;;;19.20;99.90;;;;;;5108611;28;20047;-65
2022/07/26 02:23:11;;;;;;;9.23;2.85;;;19.20;99.90;;;;;;5106286;28;20090;-65
2022/07/26 02:25:37;;;;;;;11.82;3.40;;;19.20;99.90;;;;;;5108668;28;20104;-65
2022/07/26 02:28:02;;;;;;;10.07;3.10;;;19.20;99.90;;;;;;5101789;28;20084;-65
2022/07/26 02:30:28;;;;;;;9.52;2.55;;;19.20;99.90;;;;;;5104956;28;20055;-66
2022/07/26 02:32:54;;;;;;;13.70;2.97;;;19.20;99.90;;;;;;5105019;28;20104;-65
2022/07/26 02:35:19;;;;;;;10.75;2.47;;;19.20;99.90;;;;;;5099898;28;20045;-65
2022/07/26 02:37:45;;;;;;;11.88;2.60;;;19.20;99.90;;;;;;5102396;28;20287;-66
2022/07/26 02:40:11;;;;;;;8.90;2.97;;;19.20;99.90;;;;;;5109280;28;20043;-65
2022/07/26 02:42:36;;;;;;;8.32;2.80;;;19.20;99.90;;;;;;5109284;28;20427;-66
2022/07/26 02:45:02;;;;;;;7.75;2.40;;;19.20;99.90;;;;;;5104035;28;20094;-65
2022/07/26 02:47:29;;;;;;;5.40;2.25;;;19.20;99.90;;;;;;5107398;28;20032;-65
2022/07/26 02:49:54;;;;;;;9.57;2.55;;;19.30;99.90;;;;;;5100112;28;20051;-65
2022/07/26 02:52:20;;;;;;;6.22;2.42;;;19.30;99.90;;;;;;5109681;28;20046;-65
2022/07/26 02:54:45;;;;;;;10.48;2.70;;;19.30;99.90;;;;;;5107483;28;20383;-65
2022/07/26 02:57:13;;;;;;;7.00;2.17;;;19.30;99.90;;;;;;5102926;28;20376;-66
2022/07/26 02:59:39;;;;;;;8.18;2.55;;;19.30;99.90;;;;;;5111489;28;20116;-65
2022/07/26 03:02:04;;;;;;;8.80;2.33;;;19.30;99.90;;;;;;5109853;27;20446;-65
2022/07/26 03:04:30;;;;;;;7.15;2.33;;;19.30;99.90;;;;;;5109506;28;20031;-65
2022/07/26 03:06:55;;;;;;;5.18;2.20;;;19.20;99.90;;;;;;5109324;28;20478;-65
2022/07/26 03:09:21;;;;;;;6.30;2.08;;;19.20;99.90;;;;;;5111400;28;20039;-65
2022/07/26 03:11:46;;;;;;;7.97;2.58;;;19.20;99.90;;;;;;5109008;28;20110;-66
2022/07/26 03:14:12;;;;;;;9.13;2.20;;;19.20;99.90;;;;;;5105217;28;20032;-66
2022/07/26 03:16:38;;;;;;;8.35;2.45;;;19.20;99.90;;;;;;5105396;28;20454;-66
2022/07/26 03:19:03;;;;;;;5.43;2.13;;;19.20;99.90;;;;;;5101134;28;20039;-65
2022/07/26 03:21:29;;;;;;;8.25;2.50;;;19.20;99.90;;;;;;5111276;28;20036;-66
2022/07/26 03:23:54;;;;;;;7.32;2.40;;;19.20;99.90;;;;;;5109557;28;20120;-65
2022/07/26 03:26:20;;;;;;;6.30;2.35;;;19.20;99.90;;;;;;5109670;28;20356;-66
2022/07/26 03:28:46;;;;;;;5.35;2.20;;;19.20;99.90;;;;;;5098822;28;20043;-66
2022/07/26 03:31:12;;;;;;;7.22;2.28;;;19.10;99.90;;;;;;5110398;28;20046;-65
2022/07/26 03:33:39;;;;;;;4.47;1.90;;;19.10;99.90;;;;;;5109458;28;20043;-65
2022/07/26 03:36:05;;;;;;;5.63;2.03;;;19.00;99.90;;;;;;5107226;28;20451;-65
2022/07/26 03:38:31;;;;;;;6.00;2.30;;;18.90;99.90;;;;;;5110317;28;20096;-65
2022/07/26 03:40:57;;;;;;;6.90;2.70;;;18.80;99.90;;;;;;5109235;28;20064;-65
2022/07/26 03:43:22;;;;;;;5.43;2.20;;;18.70;99.90;;;;;;5109120;28;20078;-66
2022/07/26 03:45:48;;;;;;;6.95;2.17;;;18.70;99.90;;;;;;5108459;28;20039;-65
2022/07/26 03:48:14;;;;;;;7.60;2.13;;;18.60;99.90;;;;;;5101716;28;20130;-66
2022/07/26 03:50:39;;;;;;;5.60;1.80;;;18.50;99.90;;;;;;5110688;28;20108;-65
2022/07/26 03:53:05;;;;;;;5.47;2.30;;;18.50;99.90;;;;;;5108948;28;20070;-65
2022/07/26 03:58:15;;;;;;;5.70;2.20;;;18.40;99.90;;;;;;5106968;28;20054;-65
2022/07/26 04:00:41;;;;;;;5.68;2.15;;;18.40;99.90;;;;;;5106739;28;20139;-65
2022/07/26 04:03:07;;;;;;;7.05;2.50;;;18.40;99.90;;;;;;5108393;28;20123;-65
2022/07/26 04:05:32;;;;;;;9.13;2.42;;;18.30;99.90;;;;;;5108763;28;20114;-65
2022/07/26 04:07:58;;;;;;;5.43;2.15;;;18.30;99.90;;;;;;5108662;28;20428;-65
2022/07/26 04:10:23;;;;;;;6.82;2.20;;;18.30;99.90;;;;;;5110787;28;20039;-66
2022/07/26 04:12:49;;;;;;;6.63;2.03;;;18.20;99.90;;;;;;5109760;28;20091;-65
2022/07/26 04:15:15;;;;;;;6.18;2.13;;;18.30;99.90;;;;;;5108743;28;20320;-66
2022/07/26 04:17:42;;;;;;;7.22;2.15;;;18.30;99.90;;;;;;5097553;28;20070;-66
2022/07/26 04:20:09;;;;;;;7.10;2.33;;;18.40;99.90;;;;;;5109826;27;20054;-66
2022/07/26 04:22:35;;;;;;;8.18;2.20;;;18.40;99.90;;;;;;5106117;28;20402;-66
2022/07/26 04:25:03;;;;;;;8.50;2.35;;;18.30;99.90;;;;;;5109817;28;20423;-65
2022/07/26 04:27:29;;;;;;;5.75;2.00;;;18.40;99.90;;;;;;5102747;28;20130;-66
2022/07/26 04:29:54;;;;;;;8.60;2.67;;;18.40;99.90;;;;;;5107204;28;20142;-66
2022/07/26 04:32:20;;;;;;;5.85;1.90;;;18.40;99.90;;;;;;5107631;28;20160;-66
2022/07/26 04:34:45;;;;;;;6.97;2.35;;;18.50;99.90;;;;;;5107669;28;20514;-66
2022/07/26 04:37:11;;;;;;;7.32;2.13;;;18.50;99.90;;;;;;5106656;28;20071;-66
2022/07/26 04:39:36;;;;;;;7.47;2.20;;;18.50;99.90;;;;;;5105037;28;20551;-66
2022/07/26 04:42:02;;;;;;;7.10;2.10;;;18.50;99.90;;;;;;5108459;28;20477;-66
2022/07/26 04:44:28;;;;;;;5.75;1.95;;;18.50;99.90;;;;;;5110809;28;20418;-66
2022/07/26 04:46:53;;;;;;;6.40;2.03;;;18.50;99.90;;;;;;5107060;28;20415;-66
2022/07/26 04:49:19;;;;;;;6.43;1.90;;;18.50;99.90;;;;;;5102511;28;20032;-66
2022/07/26 04:51:44;;;;;;;6.97;1.90;;;18.50;99.90;;;;;;5107457;28;20051;-66
2022/07/26 04:54:10;;;;;;;6.35;1.92;;;18.60;99.90;;;;;;5107773;28;20035;-66
2022/07/26 04:56:35;;;;;;;6.68;1.70;;;18.50;99.90;;;;;;5108425;28;20047;-66
2022/07/26 04:59:01;;;;;;;4.40;1.50;;;18.50;99.90;;;;;;5106329;28;20134;-66
2022/07/26 05:01:26;;;;;;;5.82;2.03;;;18.50;99.90;;;;;;5106823;28;20035;-67
2022/07/26 05:03:52;;;;;;;5.95;1.88;;;18.50;99.90;;;;;;5107336;28;20112;-66
2022/07/26 05:06:18;;;;;;;4.18;1.65;;;18.50;99.90;;;;;;5108363;28;20048;-66
2022/07/26 05:08:44;;;;;;;4.90;1.58;;;18.50;99.90;;;;;;5108042;28;20379;-66
2022/07/26 05:11:10;;;;;;;7.47;1.55;;;18.60;99.90;;;;;;5108845;28;20044;-66
2022/07/26 05:13:36;;;;;;;4.53;1.58;;;18.60;99.90;;;;;;5116355;27;20114;-66
2022/07/26 05:16:02;;;;;;;8.02;1.58;;;18.60;99.90;;;;;;5111198;27;20115;-66
2022/07/26 05:18:28;;;;;;;5.95;1.77;;;18.70;99.90;;;;;;5106837;28;20154;-66
2022/07/26 05:20:54;;;;;;;7.50;1.88;;;18.70;99.90;;;;;;5104455;28;20052;-66
2022/07/26 05:23:20;;;;;;;6.15;1.52;;;18.80;99.90;;;;;;5107946;28;20443;-66
2022/07/26 05:25:46;;;;;;;5.93;1.70;;;18.80;99.90;;;;;;5088669;28;20047;-66
2022/07/26 05:28:12;;;;;;;6.03;1.63;;;18.70;99.90;;;;;;5104326;27;20478;-66
2022/07/26 05:30:37;;;;;;;7.50;1.70;;;18.80;99.90;;;;;;5103056;28;20103;-66
2022/07/26 05:33:03;;;;;;;7.85;1.67;;;18.80;99.90;;;;;;5105133;28;20040;-66
2022/07/26 05:35:28;;;;;;;6.45;1.73;;;18.80;99.90;;;;;;5107346;28;20092;-66
2022/07/26 05:37:55;;;;;;;7.63;1.60;;;18.80;99.90;;;;;;5103731;28;20050;-68
2022/07/26 05:40:21;;;;;;;7.60;1.60;;;18.90;99.90;;;;;;5102218;28;20131;-66
2022/07/26 05:42:47;;;;;;;6.38;1.60;;;18.80;99.90;;;;;;5107032;28;20054;-66
2022/07/26 05:45:13;;;;;;;6.60;1.40;;;18.80;99.90;;;;;;5107721;28;20047;-66
2022/07/26 05:47:38;;;;;;;4.28;1.23;;;18.80;99.90;;;;;;5106462;28;20052;-66
2022/07/26 05:50:05;;;;;;;8.05;1.33;;;18.80;99.90;;;;;;5107247;28;20251;-66
2022/07/26 05:52:31;;;;;;;7.78;1.42;;;18.80;99.90;;;;;;5104277;28;20118;-66
2022/07/26 05:54:57;;;;;;;4.50;1.25;;;18.80;99.90;;;;;;5108133;28;20114;-66
2022/07/26 05:57:22;;;;;;;4.57;1.08;;;18.60;99.90;;;;;;5107408;28;20044;-66
2022/07/26 05:59:48;;;;;;;5.72;1.10;;;18.50;99.90;;;;;;5106523;28;20053;-66
2022/07/26 06:02:14;;;;;;;5.43;1.30;;;18.30;99.90;;;;;;5107017;28;20144;-66
2022/07/26 06:04:39;;;;;;;8.15;1.00;;;18.40;99.90;;;;;;5105198;28;20118;-66
2022/07/26 06:07:05;;;;;;;5.72;1.40;;;18.60;99.90;;;;;;5107332;28;20184;-67
2022/07/26 06:09:30;;;;;;;4.60;1.10;;;18.80;99.90;;;;;;5106944;28;20127;-66
2022/07/26 06:11:56;;;;;;;6.13;0.95;;;19.00;99.90;;;;;;5107622;28;20043;-65
2022/07/26 06:14:21;;;;;;;6.38;1.10;;;19.00;99.90;;;;;;5108264;28;20035;-66
2022/07/26 06:16:48;;;;;;;4.88;0.88;;;19.10;99.90;;;;;;5106346;28;20046;-65
2022/07/26 06:19:13;;;;;;;4.53;1.00;;;18.80;99.90;;;;;;5108401;28;20443;-65
2022/07/26 06:21:40;;;;;;;5.25;0.90;;;18.70;99.90;;;;;;5106446;28;20035;-66
2022/07/26 06:24:06;;;;;;;4.45;0.80;;;18.60;99.90;;;;;;5106414;28;20139;-66
2022/07/26 06:26:32;;;;;;;4.32;1.00;;;18.50;99.90;;;;;;5108187;28;20122;-65
2022/07/26 06:28:57;;;;;;;3.83;0.80;;;18.50;99.90;;;;;;5107479;28;20504;-66
2022/07/26 06:31:23;;;;;;;4.18;1.00;;;18.50;99.90;;;;;;5106512;28;20607;-67
2022/07/26 06:33:50;;;;;;;5.70;0.90;;;18.50;99.90;;;;;;5107462;28;20044;-66
2022/07/26 06:36:15;;;;;;;5.38;0.77;;;18.60;99.90;;;;;;5107131;28;20047;-66
2022/07/26 06:38:41;;;;;;;4.90;0.80;;;18.60;99.90;;;;;;5107317;28;20110;-66
2022/07/26 06:41:07;;;;;;;2.60;0.70;;;18.70;99.90;;;;;;5106689;28;20701;-66
2022/07/26 06:43:32;;;;;;;5.00;0.85;;;18.80;99.90;;;;;;5107714;28;20336;-67
2022/07/26 06:45:58;;;;;;;4.80;1.20;;;19.10;99.90;;;;;;5107693;28;20040;-66
2022/07/26 06:48:24;;;;;;;6.50;0.98;;;19.10;99.90;;;;;;5106460;28;20058;-66
2022/07/26 06:50:49;;;;;;;3.58;1.00;;;19.10;99.90;;;;;;5108032;28;20062;-66
2022/07/26 06:53:15;;;;;;;4.85;1.15;;;19.20;99.90;;;;;;5105431;28;20040;-66
2022/07/26 06:55:41;;;;;;;5.38;0.80;;;19.10;99.90;;;;;;5106179;28;20047;-66
2022/07/26 06:58:06;;;;;;;8.48;0.90;;;19.20;99.90;;;;;;5106419;28;20503;-66
2022/07/26 07:00:32;;;;;;;6.28;0.98;;;19.30;99.90;;;;;;5105735;28;20127;-66
2022/07/26 07:02:57;;;;;;;3.58;0.75;;;19.40;99.90;;;;;;5106611;28;20054;-66
2022/07/26 07:05:23;;;;;;;4.85;1.00;;;19.50;99.90;;;;;;5107707;28;20040;-67
2022/07/26 07:07:48;;;;;;;6.28;1.20;;;19.60;99.90;;;;;;5107300;28;20405;-67
2022/07/26 07:10:14;;;;;;;3.38;0.82;;;19.50;99.90;;;;;;5107331;28;20040;-67
2022/07/26 07:12:42;;;;;;;4.22;0.93;;;19.20;99.90;;;;;;5107479;28;20550;-67
2022/07/26 07:15:08;;;;;;;4.15;0.70;;;18.90;99.90;;;;;;5105465;28;20079;-66
2022/07/26 07:17:34;;;;;;;5.00;0.80;;;18.60;99.90;;;;;;5105912;28;20140;-65
2022/07/26 07:19:59;;;;;;;5.00;0.75;;;18.40;99.90;;;;;;5105475;28;20032;-66
2022/07/26 07:22:25;;;;;;;2.88;0.57;;;18.30;99.90;;;;;;5107697;28;20035;-67
2022/07/26 07:24:50;;;;;;;2.35;0.60;;;18.30;99.90;;;;;;5106403;28;20047;-67
2022/07/26 07:27:16;;;;;;;3.78;0.68;;;18.40;99.90;;;;;;5107545;28;20078;-67
2022/07/26 07:29:42;;;;;;;4.30;0.80;;;18.50;99.90;;;;;;5112101;28;20039;-67
2022/07/26 07:32:08;;;;;;;4.05;0.80;;;18.70;99.90;;;;;;5108686;28;20067;-67
2022/07/26 07:34:34;;;;;;;3.42;0.82;;;18.90;99.90;;;;;;5111803;28;20502;-67
2022/07/26 07:36:59;;;;;;;3.75;0.65;;;18.90;99.90;;;;;;5108382;28;20075;-67
2022/07/26 07:39:25;;;;;;;2.90;0.65;;;19.10;99.90;;;;;;5111328;28;20115;-67
2022/07/26 07:41:50;;;;;;;3.38;0.70;;;19.20;99.90;;;;;;5106518;28;20462;-67
2022/07/26 07:44:16;;;;;;;3.15;0.73;;;19.40;99.90;;;;;;5111177;28;20125;-67
2022/07/26 07:46:41;;;;;;;3.42;0.70;;;19.50;99.90;;;;;;5109407;28;20047;-67
2022/07/26 07:49:09;;;;;;;4.15;0.80;;;19.60;99.90;;;;;;5110695;28;20114;-67
2022/07/26 07:51:35;;;;;;;4.25;0.93;;;19.70;99.90;;;;;;5108599;28;20340;-67
2022/07/26 07:54:00;;;;;;;3.17;0.60;;;19.80;99.90;;;;;;5107562;28;20081;-67
2022/07/26 07:56:26;;;;;;;5.10;1.15;;;19.90;99.90;;;;;;5110117;28;20143;-67
2022/07/26 07:58:51;;;;;;;5.45;0.90;;;19.90;99.90;;;;;;5108214;28;20617;-67
2022/07/26 08:01:17;;;;;;;3.95;0.88;;;19.90;99.90;;;;;;5109225;28;20039;-66
2022/07/26 08:03:43;;;;;;;6.03;1.00;;;20.10;99.90;;;;;;5110340;28;20388;-67
2022/07/26 08:06:09;;;;;;;3.55;0.85;;;20.20;99.90;;;;;;5110024;28;20082;-67
2022/07/26 08:08:36;;;;;;;3.90;0.75;;;20.40;99.90;;;;;;5092643;28;20394;-67
2022/07/26 08:11:03;;;;;;;3.67;0.82;;;20.60;99.90;;;;;;5110022;27;20119;-67
2022/07/26 08:13:28;;;;;;;5.57;0.70;;;20.70;99.90;;;;;;5110134;28;20059;-67
2022/07/26 08:15:54;;;;;;;5.05;0.60;;;20.90;99.90;;;;;;5108878;28;20043;-67
2022/07/26 08:18:21;;;;;;;4.35;0.80;;;21.10;99.90;;;;;;5109405;28;20363;-67
2022/07/26 08:20:47;;;;;;;4.30;0.70;;;21.30;99.90;;;;;;5110097;28;20074;-67
2022/07/26 08:23:12;;;;;;;4.65;0.65;;;21.30;99.90;;;;;;5109621;28;20067;-67
2022/07/26 08:25:38;;;;;;;3.97;1.08;;;21.40;99.90;;;;;;5110594;28;20078;-66
2022/07/26 08:28:03;;;;;;;4.13;0.77;;;21.40;99.90;;;;;;5107825;28;20051;-66
2022/07/26 08:30:30;;;;;;;5.13;0.90;;;21.40;99.90;;;;;;5108057;28;20031;-67
2022/07/26 08:32:56;;;;;;;3.30;0.80;;;21.30;99.90;;;;;;5105010;28;20135;-66
2022/07/26 08:35:21;;;;;;;4.85;1.05;;;21.30;99.90;;;;;;5109887;28;20445;-66
2022/07/26 08:37:47;;;;;;;3.97;0.88;;;21.40;99.90;;;;;;5108406;28;20050;-66
2022/07/26 08:40:13;;;;;;;2.70;0.60;;;21.40;99.90;;;;;;5107279;28;20051;-67
2022/07/26 08:42:38;;;;;;;3.60;0.60;;;21.50;99.90;;;;;;5109242;28;20066;-66
2022/07/26 08:45:04;;;;;;;3.08;0.70;;;21.50;99.90;;;;;;5109691;28;20458;-67
2022/07/26 08:47:30;;;;;;;2.97;0.57;;;21.40;99.70;;;;;;5108939;28;20031;-67
2022/07/26 08:49:56;;;;;;;4.28;0.90;;;21.10;99.90;;;;;;5109015;28;20050;-67
2022/07/26 08:52:21;;;;;;;3.40;0.70;;;20.90;99.90;;;;;;5109541;28;20355;-67
2022/07/26 08:54:50;;;;;;;3.03;0.80;;;20.50;99.90;;;;;;5109036;28;20059;-66
2022/07/26 08:57:17;;;;;;;5.45;1.00;;;20.40;99.90;;;;;;5108807;28;20039;-66
2022/07/26 08:59:43;;;;;;;5.68;1.08;;;20.30;99.90;;;;;;5107886;28;20059;-66
2022/07/26 09:02:11;;;;;;;4.05;0.70;;;20.20;99.90;;;;;;5106732;28;20085;-66
2022/07/26 09:04:41;;;;;;;6.45;1.08;;;20.30;99.90;;;;;;5095912;28;20107;-66
2022/07/26 09:07:08;;;;;;;4.63;1.20;;;20.30;99.90;;;;;;5108807;28;20036;-66
2022/07/26 09:09:37;;;;;;;5.13;0.85;;;20.30;99.90;;;;;;5109146;28;20039;-66
2022/07/26 09:12:14;;;;;;;6.13;1.10;;;20.40;99.90;;;;;;5108922;28;20031;-66
2022/07/26 09:14:39;;;;;;;4.57;0.80;;;20.40;99.90;;;;;;5109025;28;20061;-66
2022/07/26 09:17:05;;;;;;;5.32;0.98;;;20.60;99.90;;;;;;5107234;28;20056;-66
2022/07/26 09:19:31;;;;;;;3.88;0.93;;;20.90;99.90;;;;;;5107585;28;20039;-66
2022/07/26 09:22:09;;;;;;;6.38;1.13;;;21.00;99.90;;;;;;5108000;28;20053;-66
2022/07/26 09:24:40;;;;;;;4.28;1.00;;;21.10;99.80;;;;;;5107126;28;20090;-67
2022/07/26 09:27:12;;;;;;;4.72;1.15;;;21.30;99.90;;;;;;5108867;28;20492;-66
2022/07/26 09:29:52;;;;;;;5.15;0.90;;;21.60;99.70;;;;;;5109300;28;20122;-67
2022/07/26 09:32:22;;;;;;;4.05;0.68;;;21.80;99.00;;;;;;5105936;28;20469;-66
2022/07/26 09:34:57;;;;;;;3.90;0.80;;;21.80;98.60;;;;;;5109236;28;20118;-66
2022/07/26 09:37:34;;;;;;;5.43;0.88;;;21.80;98.80;;;;;;5105910;28;20395;-66
2022/07/26 09:40:02;;;;;;;5.32;1.02;;;21.90;98.90;;;;;;5108911;28;20040;-66
2022/07/26 09:42:28;;;;;;;5.95;1.05;;;21.90;97.90;;;;;;5108786;28;20505;-66
2022/07/26 09:44:55;;;;;;;6.03;1.00;;;21.80;97.70;;;;;;5107396;28;20071;-66
2022/07/26 09:47:21;;;;;;;4.40;0.85;;;21.80;97.60;;;;;;5107407;28;20071;-66
2022/07/26 09:49:47;;;;;;;5.97;0.93;;;22.00;97.60;;;;;;5109125;28;20052;-66
2022/07/26 09:52:16;;;;;;;4.03;0.88;;;22.10;97.40;;;;;;5106151;28;20040;-66
2022/07/26 09:54:44;;;;;;;6.60;1.17;;;22.20;97.20;;;;;;5108111;28;20044;-66
2022/07/26 09:57:10;;;;;;;7.38;1.33;;;22.20;96.90;;;;;;5107974;28;20051;-66
2022/07/26 09:59:36;;;;;;;7.28;1.30;;;22.10;96.90;;;;;;5106377;28;20040;-65
2022/07/26 10:02:01;;;;;;;6.53;0.90;;;22.00;97.00;;;;;;5107317;28;20088;-65
2022/07/26 10:04:27;;;;;;;6.97;1.10;;;21.90;97.00;;;;;;5109119;28;20027;-66
2022/07/26 10:06:54;;;;;;;4.47;0.93;;;21.70;97.00;;;;;;5107965;28;20575;-65
2022/07/26 10:09:22;;;;;;;6.75;1.20;;;21.50;97.10;;;;;;5109526;28;20402;-65
2022/07/26 10:11:58;;;;;;;6.82;1.23;;;21.80;97.00;;;;;;5107902;28;20478;-66
2022/07/26 10:14:36;;;;;;;6.68;1.20;;;22.10;96.10;;;;;;5108711;28;20356;-67
2022/07/26 10:17:30;;;;;;;4.38;0.95;;;22.30;95.90;;;;;;5106591;28;20387;-66
2022/07/26 10:20:01;;;;;;;5.50;1.13;;;22.50;95.50;;;;;;5092942;28;20472;-65
2022/07/26 10:22:30;;;;;;;5.57;1.05;;;22.30;95.00;;;;;;5107595;28;20035;-66
2022/07/26 10:25:16;;;;;;;5.07;1.20;;;22.20;95.20;;;;;;5094262;28;20270;-65
2022/07/26 10:27:53;;;;;;;6.70;1.40;;;21.90;95.10;;;;;;5107409;28;20073;-66
2022/07/26 10:30:23;;;;;;;10.68;2.00;;;21.60;95.70;;;;;;5106535;28;20047;-66
2022/07/26 10:33:12;;;;;;;7.35;1.50;;;21.10;96.60;;;;;;5105738;28;20479;-66
2022/07/26 10:35:39;;;;;;;8.75;2.10;;;20.70;97.90;;;;;;5107682;28;20119;-66
2022/07/26 10:38:08;;;;;;;7.20;1.60;;;20.40;98.40;;;;;;5105469;28;20510;-66
2022/07/26 10:40:34;;;;;;;9.23;1.90;;;20.20;98.80;;;;;;5107464;28;20120;-66
2022/07/26 10:43:12;;;;;;;6.63;1.52;;;20.00;99.50;;;;;;5106283;28;20059;-65
2022/07/26 10:45:38;;;;;;;6.38;1.63;;;20.00;99.80;;;;;;5108237;28;20047;-65
2022/07/26 10:48:16;;;;;;;6.93;1.70;;;20.00;99.90;;;;;;5105901;28;20053;-65
2022/07/26 10:50:43;;;;;;;7.28;1.20;;;20.00;99.20;;;;;;5107360;28;20044;-65
2022/07/26 10:53:15;;;;;;;6.93;1.55;;;20.10;99.10;;;;;;5107267;28;20036;-66
2022/07/26 10:55:50;;;;;;;7.68;1.33;;;20.30;99.10;;;;;;5107490;28;20122;-65
2022/07/26 10:58:16;;;;;;;7.68;1.50;;;20.70;98.40;;;;;;5107665;28;20393;-65
2022/07/26 11:01:00;;;;;;;5.93;1.40;;;21.00;97.70;;;;;;5108657;28;20614;-65
2022/07/26 11:03:37;;;;;;;7.57;1.43;;;21.30;97.00;;;;;;5110201;28;20039;-65
2022/07/26 11:06:17;;;;;;;7.05;1.67;;;21.50;96.50;;;;;;5110848;28;20341;-65
2022/07/26 11:08:46;;;;;;;10.77;1.75;;;21.70;95.90;;;;;;5110227;28;20047;-65
2022/07/26 11:11:12;;;;;;;10.52;1.80;;;21.70;95.90;;;;;;5111266;28;20052;-65
2022/07/26 11:13:39;;;;;;;7.45;1.80;;;21.70;96.00;;;;;;5112003;28;20066;-65
2022/07/26 11:16:07;;;;;;;6.25;1.13;;;21.60;95.80;;;;;;5110049;28;20074;-65
2022/07/26 11:18:35;;;;;;;5.72;1.13;;;21.40;95.60;;;;;;5109123;28;20152;-65
2022/07/26 11:21:14;;;;;;;13.40;1.85;;;21.50;95.20;;;;;;5111345;28;20069;-66
2022/07/26 11:23:45;;;;;;;8.48;1.27;;;21.50;94.80;;;;;;5110603;28;20056;-66
2022/07/26 11:26:16;;;;;;;7.55;1.50;;;21.50;94.70;;;;;;5110575;28;20126;-65
2022/07/26 11:28:50;;;;;;;7.20;1.50;;;21.60;95.30;;;;;;5111785;28;20063;-66
2022/07/26 11:31:17;;;;;;;10.20;2.10;;;21.70;95.10;;;;;;5107949;28;20442;-66
2022/07/26 11:33:47;;;;;;;6.35;1.52;;;21.70;94.90;;;;;;5110992;28;20392;-66
2022/07/26 11:36:13;;;;;;;9.40;1.70;;;21.80;94.30;;;;;;5111429;28;20074;-66
2022/07/26 11:38:53;;;;;;;6.95;1.45;;;21.70;94.00;;;;;;5108990;28;20048;-66
2022/07/26 11:41:26;;;;;;;8.32;1.48;;;21.50;93.20;;;;;;5109749;28;20065;-66
2022/07/26 11:43:54;;;;;;;6.85;1.60;;;21.40;93.40;;;;;;5110329;28;20378;-66
2022/07/26 11:46:20;;;;;;;7.20;1.48;;;21.40;93.40;;;;;;5110840;28;20188;-66
2022/07/26 11:48:47;;;;;;;11.30;1.60;;;21.60;93.30;;;;;;5110680;28;20523;-66
2022/07/26 11:51:18;;;;;;;8.18;1.80;;;21.70;93.20;;;;;;5109100;28;20055;-66
2022/07/26 11:53:44;;;;;;;7.55;1.65;;;21.70;93.00;;;;;;5110092;28;20036;-66
2022/07/26 11:56:19;;;;;;;13.07;2.08;;;21.80;92.80;;;;;;5109436;28;20040;-66
2022/07/26 11:58:50;;;;;;;6.78;1.63;;;21.80;92.80;;;;;;5110395;28;20389;-66
2022/07/26 12:01:18;;;;;;;8.13;1.40;;;22.10;92.20;;;;;;5110091;28;20044;-65
2022/07/26 12:03:46;;;;;;;6.18;1.50;;;22.20;91.90;;;;;;5110222;28;20054;-65
2022/07/26 12:06:16;;;;;;;8.88;1.83;;;22.30;91.30;;;;;;5109982;28;20416;-65
2022/07/26 12:08:42;;;;;;;7.50;1.63;;;22.50;91.30;;;;;;5109824;28;20071;-65
2022/07/26 12:11:09;;;;;;;7.50;1.85;;;22.80;90.50;;;;;;5109341;28;20052;-66
2022/07/26 12:13:48;;;;;;;5.72;1.30;;;22.80;90.50;;;;;;5109155;28;20541;-66
2022/07/26 12:16:32;;;;;;;7.47;1.45;;;22.80;90.10;;;;;;5109340;28;20044;-66
2022/07/26 12:18:57;;;;;;;6.80;1.20;;;22.70;89.90;;;;;;5109480;28;20387;-66
2022/07/26 12:21:40;;;;;;;6.60;1.20;;;22.70;90.10;;;;;;5109971;28;20062;-66
2022/07/26 12:24:06;;;;;;;5.30;1.30;;;22.90;88.80;;;;;;5109881;28;20063;-66
2022/07/26 12:26:32;;;;;;;3.95;1.17;;;22.80;88.20;;;;;;5108906;28;20047;-66
2022/07/26 12:29:23;;;;;;;5.90;1.23;;;22.90;87.20;;;;;;5107843;28;20063;-66
2022/07/26 12:31:45;;;;;;;5.10;1.30;;;22.90;86.60;;;;;;5098107;28;20059;-66
2022/07/26 12:34:11;;;;;;;6.70;1.30;;;22.90;86.60;;;;;;5109394;28;20093;-66
2022/07/26 12:36:37;;;;;;;8.98;1.88;;;23.10;87.50;;;;;;5109677;28;20040;-66
2022/07/26 12:39:04;;;;;;;5.63;1.63;;;23.00;86.90;;;;;;5109375;28;20039;-66
2022/07/26 12:41:35;;;;;;;5.05;1.20;;;23.30;86.60;;;;;;5108817;28;20093;-65
2022/07/26 12:44:00;;;;;;;7.50;1.30;;;23.40;84.40;;;;;;5109638;28;20047;-65
2022/07/26 12:46:26;;;;;;;6.82;1.33;;;23.40;85.30;;;;;;5107848;28;20459;-66
2022/07/26 12:48:52;;;;;;;7.82;1.30;;;23.30;85.40;;;;;;5108435;28;20040;-66